Madeline — WDF2406 — position and weather

sailwx.info

Track history (hours):
 
Tides and Currents Weather Stations Pressure Air Temp Water Temp Dewpoint Dewpoint Depression Visibility Wind Speed Wind Dir Waves Ship Positions

Madeline

Owner: Enterprise Marine Services, LLC, San Antonio, TX. More information available from US FCC via Universal Licensing System and Coast Guard Vessel Documentation Center.

Last reported at 2016-Feb-03 10:23 UTC. Time now 2016-Feb-07 05:50 UTC.
Position N 31°60' W 091°05'.

; draft 3 m.

Type: . MMSI: 367350460.

Date/timePositionNaut miles runAvg speedWind from/ knotsBaromVisibWave heightAir tempDewpointWater temp
2016-Feb-03 10:23N 31°60' W 091°05'6 6.6
2016-Feb-03 09:32N 32°05' W 091°05'4 3.6
2016-Feb-03 08:33N 32°07' W 091°02'8 7.7
2016-Feb-03 07:33N 32°15' W 090°59'7 6.9
2016-Feb-03 06:33N 32°20' W 090°55'6 5.7
2016-Feb-03 05:33N 32°24' W 090°60'7 7.2
2016-Feb-03 04:33N 32°28' W 091°07'7 6.8
2016-Feb-03 03:33N 32°35' W 091°08'7 6.9
2016-Feb-03 02:29N 32°42' W 091°04'  
2016-Jan-24 17:05N 32°37' W 091°09'8 5.3
2016-Jan-24 15:33N 32°29' W 091°06'6 5.9
2016-Jan-24 14:33N 32°26' W 091°00'5 4.6
2016-Jan-24 13:33N 32°21' W 090°59'4 4.2
2016-Jan-24 12:33N 32°19' W 090°55'0 0.2
2016-Jan-24 11:32N 32°18' W 090°55'0 0.0
2016-Jan-24 10:32N 32°18' W 090°55'  
Track history (hours):
 
Tides and Currents Weather Stations Pressure Air Temp Water Temp Dewpoint Dewpoint Depression Visibility Wind Speed Wind Dir Waves Ship Positions

Madeline

Owner: Enterprise Marine Services, LLC, San Antonio, TX. More information available from US FCC via Universal Licensing System and Coast Guard Vessel Documentation Center.

Last reported at 2016-Feb-03 10:23 UTC. Time now 2016-Feb-07 05:50 UTC.
Position N 31°60' W 091°05'.

; draft 3 m.

Type: . MMSI: 367350460.

Date/timePositionNaut miles runAvg speedWind from/ knotsBaromVisibWave heightAir tempDewpointWater temp
2016-Feb-03 10:23N 31°60' W 091°05'6 6.6
2016-Feb-03 09:32N 32°05' W 091°05'4 3.6
2016-Feb-03 08:33N 32°07' W 091°02'8 7.7
2016-Feb-03 07:33N 32°15' W 090°59'7 6.9
2016-Feb-03 06:33N 32°20' W 090°55'6 5.7
2016-Feb-03 05:33N 32°24' W 090°60'7 7.2
2016-Feb-03 04:33N 32°28' W 091°07'7 6.8
2016-Feb-03 03:33N 32°35' W 091°08'7 6.9
2016-Feb-03 02:29N 32°42' W 091°04'  
2016-Jan-24 17:05N 32°37' W 091°09'8 5.3
2016-Jan-24 15:33N 32°29' W 091°06'6 5.9
2016-Jan-24 14:33N 32°26' W 091°00'5 4.6
2016-Jan-24 13:33N 32°21' W 090°59'4 4.2
2016-Jan-24 12:33N 32°19' W 090°55'0 0.2
2016-Jan-24 11:32N 32°18' W 090°55'0 0.0
2016-Jan-24 10:32N 32°18' W 090°55'  

Dump ship's entire track history